Terminal Aerodrome Forecast
Issued by NWS Topeka, KS

Home | Current Version | Previous Version | Text Only | Print | Product List | Glossary Off
Versions: 1 2 3 4 5 6 7 8 9 10 11 12 13 14 15 16 17

000
FTUS43 KTOP 030500
TAFTOP
TAF
KTOP 030520Z 0306/0406 12009KT P6SM FEW040
     FM031400 16011KT P6SM SCT040 BKN250
     FM040000 13005KT P6SM BKN040=

USA.gov is the U.S. government's official web portal to all federal, state and local government web resources and services.